Deedsville, IN (46921)

4:04 AM EST on February 22, 2017 (GMT -0500)
K9DCC 1150 N. | | Change Station
Active Advisory: Marine Fog Advisory

Elev 850 ft 40.93 °N, 86.16 °W | Updated 53 seconds ago

Mostly Cloudy
Mostly Cloudy
51.1 °F
Feels Like 51.1 °F
N
0.0
Wind Variable Wind from SSE

Today
High -- | Low -- °F
--% Chance of Precip.
Yesterday
High -- | Low -- °F
Precip. -- in
Pressure 29.88 in
Visibility 7.0 miles
Clouds Scattered Clouds 2400 ft
Overcast 3800 ft
Dew Point 50 °F
Humidity 96%
Rainfall 0.00 in
Snow Depth Not available.
7:28 AM 6:27 PM
Waning Crescent, 19% visible
METAR KRCR 220855Z AUTO 22004KT 7SM SCT024 OVC038 12/11 A2988 RMK AO2
Pressure 29.88 in
Visibility 7.0 miles
Clouds Scattered Clouds 2400 ft
Overcast 3800 ft
Dew Point 50 °F
Humidity 96%
Rainfall 0.00 in
Snow Depth Not available.
7:28 AM 6:27 PM
Waning Crescent, 19% visible
METAR KRCR 220855Z AUTO 22004KT 7SM SCT024 OVC038 12/11 A2988 RMK AO2

Get Your Daily Forecast Email!

Thanks for signing up!

Be on the lookout for a verification email in your inbox.

You'll start receiving the daily forecast at 8 AM.

×

10-Day Weather Forecast

Almanac

Astronomy

Feb. 22, 2017 Rise Set
Actual Time
Civil Twilight
Nautical Twilight
Astronomical Twilight
Moon
Length of Visible Light
Length of Day
Tomorrow will be .
, % of the Moon is Illuminated

Today's Extremes

State Highs State Lows

Community

WunderPhotos

Upload Photos

1,962,540 photos uploaded!

WunderBlog® & News

Nearby

Air Quality

  Air Quality AQ Index Pollutant
Not available.

Snow Depth

Station Depth Elevation

Earthquake Activity

City Distance Mag. Time & Date
Minimum magnitude displayed is 2.5.

Coastal Water Temperatures

Place Temperature

Stations

Nearby Weather Stations

Station Location Temp. Windchill Dew Point Humidity Wind Precip. Elev Updated Type
                   

Watches & Warnings

Marine Fog Advisory
Issued: 9:03 PM EST Feb. 21, 2017 – National Weather Service

... Dense fog advisory in effect until 10 am EST Wednesday...

The National Weather Service in northern Indiana has issued a
dense fog advisory... which is in effect until 10 am EST
Wednesday.

* Visibility: widespread visibilities below 1/4 mile are expected
through Wednesday morning.

Precautionary/preparedness actions...

* inexperienced mariners... especially those operating smaller
vessels should avoid navigating in these conditions.